WEATHER/FLIGHT PLANNING

Hattiesburg Radar

 

 

 

 

Weather Links

Flight Planning Links

 

METAR

2017/11/20 00:53 KHBG 200053Z AUTO 30003KT 10SM CLR 08/03 A3020 RMK AO2 SLP225 T00780033

TAF

2017/11/19 18:22 TAF KHBG 191720Z 1918/2018 36011G20KT P6SM SKC FM200000 34003KT P6SM SKC